EZY457 LFPG-EDDF
Flight info
| Callsign | EZY457 |
|---|---|
| Flight time | 0h 59m |
| Altitude | 23000 |
| Route | RANUX DCT VALEK DCT LIPNI UN858 LIMGO Z111 RAMOB IMCOM1A |
| Aircraft | A320/M-SDE3FGHIRWY/LB1 |
Departure
| Time | 2026-05-05 21:46 |
|---|---|
| Airport | Charles de Gaulle International Airport (LFPG) |
Arrival
| Time | 2026-05-05 22:46 |
|---|---|
| Airport | Frankfurt Main Airport (EDDF) |
| Time | Latitude | Longitude | Altitude | Speed | Heading |
|---|---|---|---|---|---|
| 2026-05-05 21:08 | 49.00523 | 2.56095 | 354 ft | 0 kts | 165° |
| 2026-05-05 21:31 | 49.00547 | 2.56082 | 361 ft | 4 kts | 152° |
| 2026-05-05 21:31 | 49.00568 | 2.56059 | 363 ft | 4 kts | 121° |
| 2026-05-05 21:32 | 49.00573 | 2.56029 | 360 ft | 1 kts | 71° |
| 2026-05-05 21:32 | 49.00571 | 2.56023 | 358 ft | 0 kts | 71° |
| 2026-05-05 21:36 | 49.00573 | 2.56031 | 360 ft | 6 kts | 71° |
| 2026-05-05 21:36 | 49.00594 | 2.56216 | 359 ft | 23 kts | 85° |
| 2026-05-05 21:36 | 49.00626 | 2.56401 | 359 ft | 13 kts | 46° |
| 2026-05-05 21:37 | 49.00678 | 2.56448 | 360 ft | 8 kts | 17° |
| 2026-05-05 21:37 | 49.00722 | 2.56452 | 354 ft | 5 kts | 357° |
| 2026-05-05 21:37 | 49.00787 | 2.56422 | 359 ft | 15 kts | 319° |
| 2026-05-05 21:37 | 49.00800 | 2.56278 | 354 ft | 15 kts | 263° |
| 2026-05-05 21:38 | 49.00797 | 2.56247 | 354 ft | 0 kts | 262° |
| 2026-05-05 21:38 | 49.00786 | 2.56124 | 354 ft | 24 kts | 261° |
| 2026-05-05 21:38 | 49.00765 | 2.55909 | 359 ft | 31 kts | 262° |
| 2026-05-05 21:38 | 49.00740 | 2.55626 | 357 ft | 24 kts | 263° |
| 2026-05-05 21:39 | 49.00725 | 2.55417 | 358 ft | 11 kts | 264° |
| 2026-05-05 21:39 | 49.00709 | 2.55324 | 354 ft | 5 kts | 244° |
| 2026-05-05 21:39 | 49.00692 | 2.55282 | 359 ft | 4 kts | 234° |
| 2026-05-05 21:39 | 49.00635 | 2.55249 | 356 ft | 17 kts | 170° |
| 2026-05-05 21:40 | 49.00551 | 2.55286 | 360 ft | 6 kts | 163° |
| 2026-05-05 21:40 | 49.00462 | 2.55326 | 356 ft | 22 kts | 164° |
| 2026-05-05 21:40 | 49.00328 | 2.55382 | 357 ft | 10 kts | 164° |
| 2026-05-05 21:40 | 49.00294 | 2.55396 | 358 ft | 0 kts | 164° |
| 2026-05-05 21:41 | 49.00282 | 2.55401 | 356 ft | 11 kts | 164° |
| 2026-05-05 21:41 | 49.00089 | 2.55485 | 354 ft | 28 kts | 163° |
| 2026-05-05 21:41 | 48.99991 | 2.55479 | 362 ft | 7 kts | 233° |
| 2026-05-05 21:41 | 48.99980 | 2.55379 | 354 ft | 25 kts | 265° |
| 2026-05-05 21:42 | 48.99965 | 2.55033 | 354 ft | 34 kts | 264° |
| 2026-05-05 21:42 | 48.99942 | 2.54850 | 360 ft | 7 kts | 231° |
| 2026-05-05 21:42 | 48.99887 | 2.54825 | 356 ft | 16 kts | 181° |
| 2026-05-05 21:42 | 48.99779 | 2.54842 | 359 ft | 13 kts | 160° |
| 2026-05-05 21:43 | 48.99727 | 2.54925 | 354 ft | 12 kts | 119° |
| 2026-05-05 21:43 | 48.99684 | 2.55062 | 362 ft | 8 kts | 115° |
| 2026-05-05 21:43 | 48.99665 | 2.55122 | 362 ft | 0 kts | 116° |
| 2026-05-05 21:44 | 48.99636 | 2.55207 | 360 ft | 15 kts | 118° |
| 2026-05-05 21:44 | 48.99585 | 2.55376 | 357 ft | 19 kts | 103° |
| 2026-05-05 21:44 | 48.99581 | 2.55493 | 354 ft | 0 kts | 87° |
| 2026-05-05 21:45 | 48.99585 | 2.55586 | 360 ft | 34 kts | 85° |
| 2026-05-05 21:45 | 48.99620 | 2.56225 | 357 ft | 64 kts | 86° |
| 2026-05-05 21:46 | 48.99660 | 2.56994 | 358 ft | 103 kts | 85° |
| 2026-05-05 21:46 | 48.99735 | 2.58462 | 366 ft | 171 kts | 84° |
| 2026-05-05 21:46 | 48.99789 | 2.60406 | 887 ft | 196 kts | 84° |
| 2026-05-05 21:46 | 48.99867 | 2.62599 | 1388 ft | 218 kts | 81° |
| 2026-05-05 21:47 | 49.00012 | 2.65019 | 1872 ft | 242 kts | 82° |
| 2026-05-05 21:47 | 49.00173 | 2.67626 | 2688 ft | 251 kts | 82° |
| 2026-05-05 21:47 | 49.00333 | 2.70307 | 3612 ft | 257 kts | 83° |
| 2026-05-05 21:47 | 49.00490 | 2.73047 | 4541 ft | 263 kts | 84° |
| 2026-05-05 21:48 | 49.00646 | 2.75865 | 5373 ft | 270 kts | 85° |
| 2026-05-05 21:48 | 49.00700 | 2.78746 | 6280 ft | 275 kts | 93° |
| 2026-05-05 21:48 | 49.00501 | 2.81663 | 7146 ft | 279 kts | 98° |
| 2026-05-05 21:48 | 49.00184 | 2.84604 | 8022 ft | 283 kts | 101° |
| 2026-05-05 21:49 | 48.99822 | 2.87575 | 8895 ft | 288 kts | 101° |
| 2026-05-05 21:49 | 48.99457 | 2.90591 | 9775 ft | 292 kts | 101° |
| 2026-05-05 21:49 | 48.99095 | 2.93699 | 10288 ft | 309 kts | 101° |
| 2026-05-05 21:49 | 48.98651 | 2.97008 | 10662 ft | 327 kts | 110° |
| 2026-05-05 21:50 | 48.97608 | 3.00039 | 11309 ft | 331 kts | 129° |
| 2026-05-05 21:50 | 48.95912 | 3.02396 | 12082 ft | 333 kts | 150° |
| 2026-05-05 21:50 | 48.93768 | 3.03683 | 12844 ft | 334 kts | 171° |
| 2026-05-05 21:50 | 48.91429 | 3.03704 | 13639 ft | 334 kts | 191° |
| 2026-05-05 21:51 | 48.89150 | 3.02973 | 14332 ft | 336 kts | 193° |
| 2026-05-05 21:51 | 48.86849 | 3.02204 | 15007 ft | 340 kts | 193° |
| 2026-05-05 21:51 | 48.84446 | 3.01794 | 15239 ft | 359 kts | 177° |
| 2026-05-05 21:51 | 48.81983 | 3.02760 | 15452 ft | 377 kts | 154° |
| 2026-05-05 21:52 | 48.78519 | 3.08653 | 16501 ft | 394 kts | 110° |
| 2026-05-05 21:52 | 48.78153 | 3.12829 | 17095 ft | 401 kts | 86° |
| 2026-05-05 21:52 | 48.78884 | 3.16914 | 17673 ft | 406 kts | 68° |
| 2026-05-05 21:53 | 48.80020 | 3.20849 | 18266 ft | 409 kts | 66° |
| 2026-05-05 21:53 | 48.81195 | 3.24725 | 18802 ft | 411 kts | 66° |
| 2026-05-05 21:53 | 48.82415 | 3.28659 | 19346 ft | 413 kts | 66° |
| 2026-05-05 21:53 | 48.83633 | 3.32606 | 19884 ft | 415 kts | 66° |
| 2026-05-05 21:54 | 48.84846 | 3.36590 | 20415 ft | 416 kts | 66° |
| 2026-05-05 21:54 | 48.86050 | 3.40594 | 20942 ft | 418 kts | 66° |
| 2026-05-05 21:54 | 48.87250 | 3.44625 | 21446 ft | 420 kts | 67° |
| 2026-05-05 21:54 | 48.88450 | 3.48686 | 21971 ft | 422 kts | 67° |
| 2026-05-05 21:55 | 48.89649 | 3.52759 | 22441 ft | 424 kts | 67° |
| 2026-05-05 21:55 | 48.90860 | 3.56880 | 22776 ft | 430 kts | 67° |
| 2026-05-05 21:55 | 48.92096 | 3.61084 | 22838 ft | 441 kts | 67° |
| 2026-05-05 21:55 | 48.93365 | 3.65396 | 22839 ft | 453 kts | 67° |
| 2026-05-05 21:56 | 48.94667 | 3.69823 | 22837 ft | 463 kts | 67° |
| 2026-05-05 21:56 | 48.95992 | 3.74337 | 22835 ft | 472 kts | 67° |
| 2026-05-05 21:56 | 48.97337 | 3.78929 | 22836 ft | 479 kts | 67° |
| 2026-05-05 21:56 | 48.98703 | 3.83596 | 22837 ft | 487 kts | 67° |
| 2026-05-05 21:57 | 49.00084 | 3.88312 | 23048 ft | 488 kts | 67° |
| 2026-05-05 21:57 | 49.01490 | 3.93108 | 22893 ft | 497 kts | 67° |
| 2026-05-05 21:57 | 49.02875 | 3.97804 | 22676 ft | 476 kts | 67° |
| 2026-05-05 21:57 | 49.04219 | 4.02374 | 22021 ft | 464 kts | 67° |
| 2026-05-05 21:58 | 49.05501 | 4.06812 | 22130 ft | 452 kts | 68° |
| 2026-05-05 21:58 | 49.06745 | 4.11169 | 22264 ft | 444 kts | 68° |
| 2026-05-05 21:58 | 49.07965 | 4.15458 | 22399 ft | 437 kts | 68° |
| 2026-05-05 21:58 | 49.09187 | 4.19753 | 22553 ft | 445 kts | 68° |
| 2026-05-05 21:59 | 49.10430 | 4.24102 | 22798 ft | 449 kts | 68° |
| 2026-05-05 21:59 | 49.11680 | 4.28470 | 22834 ft | 449 kts | 68° |
| 2026-05-05 21:59 | 49.12927 | 4.32837 | 22839 ft | 449 kts | 68° |
| 2026-05-05 21:59 | 49.14161 | 4.37151 | 22836 ft | 449 kts | 68° |
| 2026-05-05 22:00 | 49.15406 | 4.41584 | 22839 ft | 449 kts | 69° |
| 2026-05-05 22:00 | 49.16598 | 4.45935 | 22837 ft | 451 kts | 69° |
| 2026-05-05 22:00 | 49.17795 | 4.50372 | 22834 ft | 451 kts | 69° |
| 2026-05-05 22:00 | 49.18983 | 4.54813 | 22831 ft | 451 kts | 69° |
| 2026-05-05 22:01 | 49.20168 | 4.59249 | 22833 ft | 452 kts | 69° |
| 2026-05-05 22:01 | 49.21356 | 4.63691 | 22818 ft | 451 kts | 69° |
| 2026-05-05 22:01 | 49.22551 | 4.68136 | 22821 ft | 451 kts | 69° |
| 2026-05-05 22:01 | 49.23744 | 4.72564 | 22830 ft | 451 kts | 69° |
| 2026-05-05 22:02 | 49.24939 | 4.77001 | 22835 ft | 450 kts | 69° |
| 2026-05-05 22:02 | 49.26129 | 4.81424 | 22825 ft | 450 kts | 69° |
| 2026-05-05 22:02 | 49.27314 | 4.85855 | 22829 ft | 450 kts | 69° |
| 2026-05-05 22:02 | 49.28495 | 4.90294 | 22810 ft | 450 kts | 69° |
| 2026-05-05 22:03 | 49.29675 | 4.94733 | 22806 ft | 450 kts | 69° |
| 2026-05-05 22:03 | 49.30855 | 4.99166 | 22805 ft | 450 kts | 69° |
| 2026-05-05 22:03 | 49.32040 | 5.03620 | 22803 ft | 451 kts | 69° |
| 2026-05-05 22:03 | 49.33218 | 5.08074 | 22800 ft | 451 kts | 70° |
| 2026-05-05 22:04 | 49.34391 | 5.12525 | 22804 ft | 451 kts | 70° |
| 2026-05-05 22:04 | 49.35566 | 5.16991 | 22807 ft | 452 kts | 70° |
| 2026-05-05 22:04 | 49.36746 | 5.21471 | 22810 ft | 452 kts | 70° |
| 2026-05-05 22:04 | 49.37920 | 5.25935 | 22811 ft | 452 kts | 70° |
| 2026-05-05 22:05 | 49.39095 | 5.30410 | 22809 ft | 452 kts | 70° |
| 2026-05-05 22:05 | 49.40267 | 5.34887 | 22812 ft | 452 kts | 70° |
| 2026-05-05 22:05 | 49.41438 | 5.39366 | 22813 ft | 451 kts | 70° |
| 2026-05-05 22:05 | 49.42602 | 5.43834 | 22827 ft | 451 kts | 70° |
| 2026-05-05 22:06 | 49.43766 | 5.48315 | 22831 ft | 451 kts | 70° |
| 2026-05-05 22:06 | 49.44925 | 5.52781 | 22832 ft | 451 kts | 70° |
| 2026-05-05 22:06 | 49.46086 | 5.57257 | 22833 ft | 450 kts | 70° |
| 2026-05-05 22:06 | 49.47244 | 5.61728 | 22834 ft | 450 kts | 70° |
| 2026-05-05 22:07 | 49.48400 | 5.66198 | 22829 ft | 450 kts | 70° |
| 2026-05-05 22:07 | 49.49551 | 5.70677 | 22813 ft | 450 kts | 70° |
| 2026-05-05 22:07 | 49.50695 | 5.75149 | 22825 ft | 449 kts | 70° |
| 2026-05-05 22:07 | 49.51835 | 5.79620 | 22810 ft | 449 kts | 70° |
| 2026-05-05 22:08 | 49.52948 | 5.84113 | 22804 ft | 449 kts | 71° |
| 2026-05-05 22:08 | 49.54042 | 5.88623 | 22793 ft | 449 kts | 71° |
| 2026-05-05 22:08 | 49.55136 | 5.93129 | 22799 ft | 449 kts | 71° |
| 2026-05-05 22:08 | 49.56236 | 5.97632 | 22796 ft | 450 kts | 71° |
| 2026-05-05 22:09 | 49.57328 | 6.02073 | 22789 ft | 450 kts | 71° |
| 2026-05-05 22:09 | 49.58442 | 6.06581 | 22781 ft | 450 kts | 70° |
| 2026-05-05 22:09 | 49.59557 | 6.11093 | 22790 ft | 450 kts | 71° |
| 2026-05-05 22:09 | 49.60667 | 6.15601 | 22793 ft | 450 kts | 71° |
| 2026-05-05 22:10 | 49.61774 | 6.20116 | 22794 ft | 450 kts | 71° |
| 2026-05-05 22:10 | 49.62875 | 6.24627 | 22794 ft | 450 kts | 71° |
| 2026-05-05 22:10 | 49.64117 | 6.29061 | 22793 ft | 451 kts | 64° |
| 2026-05-05 22:10 | 49.65690 | 6.33258 | 22783 ft | 452 kts | 61° |
| 2026-05-05 22:11 | 49.67300 | 6.37430 | 22784 ft | 453 kts | 61° |
| 2026-05-05 22:11 | 49.68910 | 6.41606 | 22787 ft | 453 kts | 61° |
| 2026-05-05 22:11 | 49.70522 | 6.45802 | 22788 ft | 454 kts | 61° |
| 2026-05-05 22:11 | 49.72237 | 6.49893 | 22788 ft | 455 kts | 54° |
| 2026-05-05 22:12 | 49.74328 | 6.53578 | 22786 ft | 457 kts | 45° |
| 2026-05-05 22:12 | 49.76751 | 6.56777 | 22787 ft | 458 kts | 40° |
| 2026-05-05 22:12 | 49.79240 | 6.59853 | 22780 ft | 459 kts | 40° |
| 2026-05-05 22:12 | 49.81735 | 6.62946 | 22785 ft | 459 kts | 40° |
| 2026-05-05 22:13 | 49.83375 | 6.64987 | 22789 ft | 458 kts | 40° |
| 2026-05-05 22:13 | 49.86693 | 6.69140 | 22784 ft | 458 kts | 40° |
| 2026-05-05 22:13 | 49.88334 | 6.71200 | 22783 ft | 458 kts | 40° |
| 2026-05-05 22:13 | 49.90808 | 6.74309 | 22787 ft | 458 kts | 40° |
| 2026-05-05 22:14 | 49.93135 | 6.77668 | 22791 ft | 455 kts | 52° |
| 2026-05-05 22:14 | 49.94846 | 6.81757 | 22794 ft | 451 kts | 67° |
| 2026-05-05 22:14 | 49.95796 | 6.86361 | 22784 ft | 448 kts | 82° |
| 2026-05-05 22:14 | 49.96064 | 6.91157 | 22784 ft | 446 kts | 88° |
| 2026-05-05 22:15 | 49.96233 | 6.95975 | 22789 ft | 446 kts | 89° |
| 2026-05-05 22:15 | 49.96400 | 7.00792 | 22793 ft | 447 kts | 89° |
| 2026-05-05 22:15 | 49.96565 | 7.05607 | 22790 ft | 447 kts | 89° |
| 2026-05-05 22:15 | 49.96733 | 7.10392 | 22804 ft | 435 kts | 88° |
| 2026-05-05 22:16 | 49.96902 | 7.15027 | 22813 ft | 427 kts | 88° |
| 2026-05-05 22:16 | 49.97071 | 7.19612 | 22807 ft | 424 kts | 88° |
| 2026-05-05 22:16 | 49.97243 | 7.24182 | 22808 ft | 425 kts | 88° |
| 2026-05-05 22:16 | 49.97421 | 7.28766 | 22801 ft | 424 kts | 88° |
| 2026-05-05 22:17 | 49.97597 | 7.33329 | 22376 ft | 425 kts | 88° |
| 2026-05-05 22:17 | 49.97767 | 7.37946 | 20895 ft | 428 kts | 88° |
| 2026-05-05 22:17 | 49.97931 | 7.42577 | 19370 ft | 430 kts | 88° |
| 2026-05-05 22:17 | 49.98113 | 7.47193 | 18088 ft | 431 kts | 84° |
| 2026-05-05 22:18 | 49.98863 | 7.51695 | 17326 ft | 431 kts | 69° |
| 2026-05-05 22:18 | 50.00347 | 7.55709 | 16607 ft | 428 kts | 52° |
| 2026-05-05 22:18 | 50.02476 | 7.58895 | 15907 ft | 424 kts | 36° |
| 2026-05-05 22:18 | 50.04842 | 7.61610 | 15196 ft | 421 kts | 41° |
| 2026-05-05 22:19 | 50.06758 | 7.65014 | 14555 ft | 417 kts | 57° |
| 2026-05-05 22:19 | 50.07956 | 7.69091 | 14182 ft | 415 kts | 75° |
| 2026-05-05 22:19 | 50.08402 | 7.73502 | 13939 ft | 413 kts | 88° |
| 2026-05-05 22:19 | 50.08520 | 7.77979 | 13703 ft | 413 kts | 89° |
| 2026-05-05 22:20 | 50.08624 | 7.82447 | 13438 ft | 414 kts | 89° |
| 2026-05-05 22:20 | 50.08716 | 7.86915 | 13158 ft | 413 kts | 89° |
| 2026-05-05 22:20 | 50.08806 | 7.91377 | 12903 ft | 412 kts | 89° |
| 2026-05-05 22:20 | 50.08896 | 7.95820 | 12639 ft | 410 kts | 89° |
| 2026-05-05 22:21 | 50.08988 | 8.00254 | 12382 ft | 409 kts | 89° |
| 2026-05-05 22:21 | 50.09076 | 8.04670 | 12121 ft | 407 kts | 89° |
| 2026-05-05 22:21 | 50.09162 | 8.09065 | 11867 ft | 406 kts | 89° |
| 2026-05-05 22:21 | 50.09248 | 8.13453 | 11613 ft | 405 kts | 89° |
| 2026-05-05 22:22 | 50.09331 | 8.17833 | 11360 ft | 403 kts | 89° |
| 2026-05-05 22:22 | 50.09412 | 8.22182 | 11111 ft | 402 kts | 89° |
| 2026-05-05 22:22 | 50.09491 | 8.26529 | 10860 ft | 401 kts | 89° |
| 2026-05-05 22:22 | 50.09567 | 8.30876 | 10614 ft | 402 kts | 89° |
| 2026-05-05 22:23 | 50.09735 | 8.35221 | 10367 ft | 401 kts | 83° |
| 2026-05-05 22:23 | 50.10248 | 8.39431 | 10134 ft | 400 kts | 75° |
| 2026-05-05 22:23 | 50.11118 | 8.43541 | 9888 ft | 399 kts | 69° |
| 2026-05-05 22:23 | 50.12264 | 8.47407 | 9683 ft | 385 kts | 57° |
| 2026-05-05 22:24 | 50.13898 | 8.50554 | 9551 ft | 365 kts | 45° |
| 2026-05-05 22:24 | 50.15357 | 8.53668 | 9417 ft | 350 kts | 66° |
| 2026-05-05 22:24 | 50.15890 | 8.57260 | 9287 ft | 335 kts | 85° |
| 2026-05-05 22:24 | 50.16288 | 8.60759 | 9153 ft | 322 kts | 72° |
| 2026-05-05 22:25 | 50.16976 | 8.64019 | 9019 ft | 310 kts | 72° |
| 2026-05-05 22:25 | 50.17637 | 8.67177 | 8843 ft | 303 kts | 72° |
| 2026-05-05 22:25 | 50.18286 | 8.70305 | 8714 ft | 303 kts | 72° |
| 2026-05-05 22:25 | 50.18932 | 8.73428 | 8581 ft | 302 kts | 72° |
| 2026-05-05 22:26 | 50.19574 | 8.76548 | 8452 ft | 302 kts | 72° |
| 2026-05-05 22:26 | 50.20210 | 8.79628 | 8326 ft | 293 kts | 72° |
| 2026-05-05 22:26 | 50.20827 | 8.82591 | 8193 ft | 281 kts | 72° |
| 2026-05-05 22:26 | 50.21421 | 8.85437 | 8072 ft | 271 kts | 72° |
| 2026-05-05 22:27 | 50.21994 | 8.88197 | 7825 ft | 265 kts | 72° |
| 2026-05-05 22:27 | 50.22558 | 8.90925 | 7518 ft | 263 kts | 72° |
| 2026-05-05 22:27 | 50.23114 | 8.93632 | 7203 ft | 261 kts | 73° |
| 2026-05-05 22:27 | 50.23667 | 8.96319 | 6906 ft | 258 kts | 73° |
| 2026-05-05 22:28 | 50.24219 | 8.98927 | 6777 ft | 248 kts | 71° |
| 2026-05-05 22:28 | 50.25024 | 9.01256 | 6519 ft | 243 kts | 50° |
| 2026-05-05 22:28 | 50.26161 | 9.03195 | 6231 ft | 242 kts | 45° |
| 2026-05-05 22:28 | 50.27343 | 9.05058 | 5912 ft | 241 kts | 44° |
| 2026-05-05 22:29 | 50.28528 | 9.06906 | 5615 ft | 240 kts | 44° |
| 2026-05-05 22:29 | 50.29706 | 9.08739 | 5304 ft | 239 kts | 44° |
| 2026-05-05 22:29 | 50.30876 | 9.10576 | 5007 ft | 238 kts | 44° |
| 2026-05-05 22:29 | 50.32037 | 9.12405 | 4692 ft | 237 kts | 44° |
| 2026-05-05 22:30 | 50.33198 | 9.14233 | 4418 ft | 235 kts | 44° |
| 2026-05-05 22:30 | 50.34349 | 9.16045 | 4127 ft | 234 kts | 44° |
| 2026-05-05 22:30 | 50.35491 | 9.17845 | 4019 ft | 233 kts | 45° |
| 2026-05-05 22:30 | 50.36410 | 9.19921 | 4017 ft | 233 kts | 68° |
| 2026-05-05 22:31 | 50.36952 | 9.22320 | 4017 ft | 234 kts | 73° |
| 2026-05-05 22:31 | 50.37416 | 9.24771 | 4014 ft | 234 kts | 79° |
| 2026-05-05 22:31 | 50.37346 | 9.27258 | 4019 ft | 229 kts | 113° |
| 2026-05-05 22:31 | 50.36521 | 9.29351 | 4023 ft | 226 kts | 132° |
| 2026-05-05 22:32 | 50.35435 | 9.31098 | 4015 ft | 222 kts | 152° |
| 2026-05-05 22:32 | 50.34000 | 9.31841 | 4019 ft | 216 kts | 176° |
| 2026-05-05 22:32 | 50.32505 | 9.31940 | 4019 ft | 215 kts | 182° |
| 2026-05-05 22:32 | 50.31012 | 9.31946 | 4014 ft | 211 kts | 184° |
| 2026-05-05 22:33 | 50.29564 | 9.31834 | 4015 ft | 207 kts | 188° |
| 2026-05-05 22:33 | 50.28159 | 9.31457 | 4013 ft | 203 kts | 203° |
| 2026-05-05 22:33 | 50.26902 | 9.30470 | 4012 ft | 202 kts | 212° |
| 2026-05-05 22:33 | 50.25782 | 9.29167 | 4014 ft | 200 kts | 222° |
| 2026-05-05 22:34 | 50.24750 | 9.27701 | 4020 ft | 201 kts | 226° |
| 2026-05-05 22:34 | 50.23868 | 9.26022 | 4015 ft | 200 kts | 238° |
| 2026-05-05 22:34 | 50.23198 | 9.24117 | 4020 ft | 200 kts | 243° |
| 2026-05-05 22:34 | 50.22585 | 9.22163 | 4020 ft | 200 kts | 244° |
| 2026-05-05 22:35 | 50.21989 | 9.20234 | 4015 ft | 200 kts | 244° |
| 2026-05-05 22:35 | 50.21380 | 9.18273 | 4010 ft | 201 kts | 244° |
| 2026-05-05 22:35 | 50.20701 | 9.16364 | 4015 ft | 201 kts | 236° |
| 2026-05-05 22:35 | 50.19884 | 9.14611 | 4010 ft | 197 kts | 231° |
| 2026-05-05 22:36 | 50.19026 | 9.13038 | 4024 ft | 182 kts | 229° |
| 2026-05-05 22:36 | 50.18231 | 9.11627 | 4019 ft | 165 kts | 229° |
| 2026-05-05 22:36 | 50.17489 | 9.10312 | 4013 ft | 160 kts | 229° |
| 2026-05-05 22:36 | 50.16754 | 9.09016 | 4012 ft | 159 kts | 229° |
| 2026-05-05 22:37 | 50.16020 | 9.07723 | 4014 ft | 159 kts | 230° |
| 2026-05-05 22:37 | 50.15412 | 9.06290 | 4014 ft | 159 kts | 241° |
| 2026-05-05 22:37 | 50.14936 | 9.04730 | 4012 ft | 160 kts | 246° |
| 2026-05-05 22:37 | 50.14516 | 9.03128 | 4012 ft | 160 kts | 248° |
| 2026-05-05 22:38 | 50.14119 | 9.01503 | 4020 ft | 168 kts | 248° |
| 2026-05-05 22:38 | 50.13713 | 8.99800 | 4006 ft | 162 kts | 249° |
| 2026-05-05 22:38 | 50.13329 | 8.98167 | 4009 ft | 160 kts | 249° |
| 2026-05-05 22:38 | 50.12949 | 8.96547 | 4005 ft | 159 kts | 249° |
| 2026-05-05 22:39 | 50.12568 | 8.94925 | 4011 ft | 160 kts | 249° |
| 2026-05-05 22:39 | 50.12188 | 8.93302 | 4011 ft | 159 kts | 249° |
| 2026-05-05 22:39 | 50.11808 | 8.91684 | 4008 ft | 159 kts | 249° |
| 2026-05-05 22:39 | 50.11422 | 8.90037 | 4015 ft | 163 kts | 249° |
| 2026-05-05 22:40 | 50.11036 | 8.88395 | 4013 ft | 161 kts | 249° |
| 2026-05-05 22:40 | 50.10652 | 8.86761 | 3998 ft | 160 kts | 249° |
| 2026-05-05 22:40 | 50.10290 | 8.85218 | 3883 ft | 142 kts | 249° |
| 2026-05-05 22:40 | 50.09959 | 8.83813 | 3722 ft | 136 kts | 249° |
| 2026-05-05 22:41 | 50.09637 | 8.82444 | 3554 ft | 134 kts | 249° |
| 2026-05-05 22:41 | 50.09317 | 8.81087 | 3388 ft | 134 kts | 249° |
| 2026-05-05 22:41 | 50.08996 | 8.79729 | 3209 ft | 133 kts | 249° |
| 2026-05-05 22:41 | 50.08679 | 8.78382 | 3027 ft | 132 kts | 248° |
| 2026-05-05 22:42 | 50.08362 | 8.77039 | 2850 ft | 132 kts | 248° |
| 2026-05-05 22:42 | 50.08045 | 8.75699 | 2677 ft | 132 kts | 248° |
| 2026-05-05 22:42 | 50.07729 | 8.74362 | 2492 ft | 132 kts | 248° |
| 2026-05-05 22:42 | 50.07413 | 8.73028 | 2320 ft | 131 kts | 248° |
| 2026-05-05 22:43 | 50.07098 | 8.71696 | 2140 ft | 131 kts | 248° |
| 2026-05-05 22:43 | 50.06785 | 8.70373 | 1968 ft | 130 kts | 248° |
| 2026-05-05 22:43 | 50.06473 | 8.69055 | 1789 ft | 129 kts | 248° |
| 2026-05-05 22:43 | 50.06161 | 8.67740 | 1618 ft | 130 kts | 247° |
| 2026-05-05 22:44 | 50.05853 | 8.66441 | 1443 ft | 130 kts | 248° |
| 2026-05-05 22:44 | 50.05542 | 8.65124 | 1264 ft | 131 kts | 248° |
| 2026-05-05 22:44 | 50.05221 | 8.63785 | 1098 ft | 133 kts | 247° |
| 2026-05-05 22:44 | 50.04892 | 8.62434 | 931 ft | 135 kts | 248° |
| 2026-05-05 22:45 | 50.04564 | 8.61063 | 747 ft | 136 kts | 248° |
| 2026-05-05 22:45 | 50.04256 | 8.59678 | 564 ft | 136 kts | 247° |
| 2026-05-05 22:45 | 50.03922 | 8.58311 | 389 ft | 134 kts | 245° |
| 2026-05-05 22:45 | 50.03636 | 8.57120 | 363 ft | 96 kts | 251° |
| 2026-05-05 22:46 | 50.03464 | 8.56394 | 362 ft | 51 kts | 250° |
| 2026-05-05 22:46 | 50.03437 | 8.56028 | 362 ft | 34 kts | 283° |
| 2026-05-05 22:46 | 50.03428 | 8.56147 | 352 ft | 27 kts | 270° |
| 2026-05-05 22:46 | 50.03457 | 8.55917 | 348 ft | 2 kts | 279° |
| 2026-05-05 22:47 | 50.03457 | 8.55914 | 357 ft | 0 kts | 279° |
| 2026-05-05 22:47 | 50.03458 | 8.55909 | 356 ft | 3 kts | 279° |
| 2026-05-05 22:47 | 50.03471 | 8.55776 | 353 ft | 0 kts | 279° |